Time;durP1;ratioP1;P1;durP2;ratioP2;P2;SDS_P1;SDS_P2;PMS_P1;PMS_P2;Temp;Humidity;BMP_temperature;BMP_pressure;BME280_temperature;BME280_humidity;BME280_pressure;Samples;Min_cycle;Max_cycle;Signal;HPM_P1;HPM_P2
2022/04/27 00:01:40;;;;;;;12.47;6.33;;;;;;;9.95;98.71;96471.44;4996399;28;21073;-70
2022/04/27 00:04:07;;;;;;;13.07;6.57;;;;;;;9.94;98.57;96465.38;4996842;28;20215;-70
2022/04/27 00:06:35;;;;;;;14.07;6.40;;;;;;;10.05;98.45;96472.13;4996197;28;20211;-70
2022/04/27 00:09:02;;;;;;;15.37;6.00;;;;;;;10.02;98.18;96468.03;4996077;28;20233;-70
2022/04/27 00:11:28;;;;;;;12.67;5.67;;;;;;;9.96;97.96;96473.94;4997062;28;20214;-70
2022/04/27 00:13:56;;;;;;;11.90;5.70;;;;;;;9.96;98.21;96475.78;4996043;28;20203;-70
2022/04/27 00:16:23;;;;;;;10.27;5.73;;;;;;;10.06;97.16;96479.84;4996119;28;20325;-70
2022/04/27 00:18:49;;;;;;;12.50;5.53;;;;;;;9.84;97.87;96474.44;4996353;28;20237;-70
2022/04/27 00:21:17;;;;;;;11.40;6.00;;;;;;;10.01;97.55;96471.63;4996480;28;20233;-70
2022/04/27 00:23:45;;;;;;;12.27;5.90;;;;;;;10.11;97.92;96474.91;4995690;28;20670;-70
2022/04/27 00:26:12;;;;;;;10.40;5.47;;;;;;;9.84;98.66;96475.25;4996408;28;20210;-70
2022/04/27 00:28:38;;;;;;;13.10;5.87;;;;;;;9.98;97.78;96476.41;4995187;28;20230;-70
2022/04/27 00:31:04;;;;;;;12.40;6.23;;;;;;;10.14;97.07;96471.94;4995988;28;20191;-70
2022/04/27 00:33:31;;;;;;;12.50;5.90;;;;;;;10.26;97.13;96475.88;4996067;28;20221;-70
2022/04/27 00:35:58;;;;;;;18.13;6.63;;;;;;;10.08;97.53;96472.63;4996410;28;20328;-70
2022/04/27 00:38:24;;;;;;;12.80;6.13;;;;;;;10.10;97.46;96475.91;4995822;28;20199;-70
2022/04/27 00:40:52;;;;;;;13.73;6.73;;;;;;;10.25;97.47;96479.47;4995963;28;20222;-70
2022/04/27 00:43:37;;;;;;;14.27;7.03;;;;;;;10.46;96.84;96472.66;4995841;28;20569;-70
2022/04/27 00:46:03;;;;;;;12.73;6.60;;;;;;;10.16;97.34;96477.88;4996172;28;20221;-70
2022/04/27 00:48:30;;;;;;;14.77;7.10;;;;;;;10.14;97.41;96477.19;4995988;28;20742;-70
2022/04/27 00:50:57;;;;;;;13.10;6.40;;;;;;;10.16;97.89;96477.88;4996129;28;20199;-70
2022/04/27 00:53:24;;;;;;;11.47;5.53;;;;;;;9.93;98.30;96484.78;4995041;28;20218;-70
2022/04/27 00:55:52;;;;;;;11.73;6.43;;;;;;;10.18;97.63;96473.22;4995940;28;20203;-70
2022/04/27 00:58:19;;;;;;;15.50;7.47;;;;;;;10.11;98.01;96477.53;4996017;28;20703;-70
2022/04/27 01:00:46;;;;;;;12.43;6.07;;;;;;;9.92;97.79;96487.59;4995598;28;20331;-70
2022/04/27 01:03:13;;;;;;;12.97;6.50;;;;;;;9.72;98.31;96487.13;4995125;28;20959;-70
2022/04/27 01:05:40;;;;;;;14.37;6.80;;;;;;;9.94;97.71;96486.44;4996562;28;20207;-70
2022/04/27 01:08:07;;;;;;;11.43;6.40;;;;;;;9.96;97.50;96496.81;4995006;28;20675;-70
2022/04/27 01:10:34;;;;;;;14.67;6.87;;;;;;;9.98;97.91;96493.03;4995115;28;20207;-70
2022/04/27 01:13:02;;;;;;;15.27;6.60;;;;;;;10.21;97.98;96491.34;4995507;28;20214;-70
2022/04/27 01:15:33;;;;;;;14.43;7.20;;;;;;;10.34;97.67;96489.81;4996674;28;20597;-70
2022/04/27 01:18:00;;;;;;;15.97;7.10;;;;;;;10.04;97.28;96492.38;4995309;28;20206;-70
2022/04/27 01:20:31;;;;;;;12.70;6.27;;;;;;;10.15;97.69;96486.75;4994926;28;20227;-70
2022/04/27 01:22:58;;;;;;;16.37;7.07;;;;;;;9.84;97.96;96491.06;4995115;28;20667;-70
2022/04/27 01:25:24;;;;;;;12.43;6.37;;;;;;;9.91;97.28;96486.75;4995631;28;20207;-70
2022/04/27 01:27:51;;;;;;;14.83;7.03;;;;;;;10.03;96.43;96495.16;4995595;28;20203;-70
2022/04/27 01:30:17;;;;;;;13.20;6.20;;;;;;;10.08;96.39;96488.41;4995598;28;20233;-70
2022/04/27 01:32:44;;;;;;;12.60;6.60;;;;;;;10.02;97.05;96486.44;4994550;28;20202;-70
2022/04/27 01:35:10;;;;;;;12.80;5.90;;;;;;;9.84;96.95;96496.31;4995346;28;20213;-70
2022/04/27 01:40:22;;;;;;;12.87;6.70;;;;;;;9.78;96.63;96488.25;4994991;28;20237;-70
2022/04/27 01:42:49;;;;;;;14.30;6.20;;;;;;;9.62;97.63;96484.81;4994606;28;20229;-70
2022/04/27 01:45:15;;;;;;;16.57;7.20;;;;;;;9.44;99.88;96489.41;4995629;28;20242;-70
2022/04/27 01:47:42;;;;;;;14.87;7.13;;;;;;;9.66;97.98;96489.59;4995221;28;20211;-70
2022/04/27 01:50:09;;;;;;;15.57;6.67;;;;;;;9.58;98.91;96494.03;4994604;28;20237;-70
2022/04/27 01:55:21;;;;;;;15.20;6.23;;;;;;;9.92;97.54;96496.28;4995349;28;20210;-70
2022/04/27 01:57:48;;;;;;;14.20;6.80;;;;;;;9.80;97.01;96499.44;4994893;28;20210;-70
2022/04/27 02:00:15;;;;;;;12.70;6.10;;;;;;;9.91;97.19;96497.28;4994657;28;20222;-70
2022/04/27 02:02:42;;;;;;;14.03;6.37;;;;;;;9.89;97.46;96496.63;4993927;28;20227;-70
2022/04/27 02:05:09;;;;;;;13.07;6.73;;;;;;;10.03;97.45;96500.41;4995093;28;20677;-70
2022/04/27 02:07:35;;;;;;;13.90;6.53;;;;;;;9.83;97.45;96505.19;4994599;28;20203;-70
2022/04/27 02:10:02;;;;;;;17.37;7.37;;;;;;;9.76;98.38;96504.22;4994899;28;20226;-70
2022/04/27 02:12:30;;;;;;;14.33;6.53;;;;;;;9.88;98.67;96507.34;4994367;28;20578;-70
2022/04/27 02:14:56;;;;;;;16.00;7.17;;;;;;;9.76;97.95;96506.84;4991208;28;20202;-70
2022/04/27 02:17:24;;;;;;;14.47;7.10;;;;;;;9.85;98.23;96513.75;4995177;28;20214;-70
2022/04/27 02:19:50;;;;;;;16.23;7.20;;;;;;;9.91;97.90;96513.06;4995123;28;20576;-71
2022/04/27 02:22:17;;;;;;;14.83;7.10;;;;;;;9.84;98.48;96501.56;4993850;28;20222;-70
2022/04/27 02:24:43;;;;;;;16.53;7.67;;;;;;;9.95;98.14;96509.16;4994139;28;20606;-70
2022/04/27 02:27:10;;;;;;;17.37;7.90;;;;;;;9.92;98.47;96516.53;4995924;28;20210;-70
2022/04/27 02:29:38;;;;;;;16.80;7.50;;;;;;;10.04;99.42;96513.44;4994130;28;20230;-70
2022/04/27 02:35:43;;;;;;;14.10;7.13;;;;;;;10.38;98.07;96517.47;4994911;28;20256;-70
2022/04/27 02:38:09;;;;;;;16.00;7.20;;;;;;;10.06;98.40;96513.28;4991305;28;20558;-70
2022/04/27 02:40:36;;;;;;;18.60;7.93;;;;;;;9.88;99.27;96518.69;4994101;28;20296;-70
2022/04/27 02:43:02;;;;;;;20.57;9.13;;;;;;;9.98;99.04;96516.72;4993713;28;20219;-70
2022/04/27 02:45:30;;;;;;;19.90;8.83;;;;;;;10.13;99.67;96517.72;4994598;28;20582;-70
2022/04/27 02:47:56;;;;;;;19.83;8.63;;;;;;;9.94;99.43;96522.44;4994356;28;20214;-70
2022/04/27 02:53:07;;;;;;;20.73;9.17;;;;;;;9.99;99.93;96515.75;4993449;28;20882;-70
2022/04/27 02:55:33;;;;;;;24.13;9.27;;;;;;;10.01;99.86;96512.94;4994505;28;20218;-70
2022/04/27 02:58:00;;;;;;;20.20;8.83;;;;;;;10.00;99.96;96517.38;4994269;28;20202;-70
2022/04/27 03:00:26;;;;;;;22.07;8.80;;;;;;;9.99;99.17;96518.38;4994239;28;20234;-70
2022/04/27 03:02:54;;;;;;;17.50;8.13;;;;;;;10.14;99.67;96519.31;4993309;28;20222;-70
2022/04/27 03:05:20;;;;;;;19.27;8.07;;;;;;;9.94;99.50;96517.19;4993709;28;20229;-70
2022/04/27 03:07:47;;;;;;;22.40;8.77;;;;;;;9.99;98.71;96531.53;4994328;28;20202;-70
2022/04/27 03:10:13;;;;;;;17.77;8.30;;;;;;;10.01;98.67;96520.84;4994233;28;20235;-70
2022/04/27 03:12:40;;;;;;;22.63;9.57;;;;;;;9.93;98.75;96519.00;4993060;28;20214;-70
2022/04/27 03:15:07;;;;;;;16.13;8.03;;;;;;;9.98;99.28;96521.16;4994321;28;20209;-70
2022/04/27 03:17:34;;;;;;;20.00;8.80;;;;;;;9.89;98.55;96517.69;4993892;28;20639;-70
2022/04/27 03:20:02;;;;;;;21.13;8.53;;;;;;;9.86;98.82;96519.84;4993843;28;20222;-70
2022/04/27 03:22:29;;;;;;;17.53;7.40;;;;;;;9.46;99.21;96526.91;4993469;28;20230;-70
2022/04/27 03:24:55;;;;;;;18.53;8.13;;;;;;;9.61;97.77;96522.63;4993694;28;20210;-70
2022/04/27 03:27:22;;;;;;;17.87;8.37;;;;;;;9.62;98.24;96532.19;4993854;28;20228;-70
2022/04/27 03:29:48;;;;;;;16.43;7.97;;;;;;;9.48;99.00;96532.81;4993963;28;20219;-70
2022/04/27 03:32:14;;;;;;;19.93;8.80;;;;;;;9.56;97.88;96528.41;4993409;28;20203;-70
2022/04/27 03:34:41;;;;;;;20.83;8.13;;;;;;;9.61;97.29;96528.72;4993541;28;20213;-70
2022/04/27 03:37:09;;;;;;;18.03;8.33;;;;;;;9.76;97.29;96527.06;4993793;28;20214;-70
2022/04/27 03:39:35;;;;;;;19.30;7.77;;;;;;;9.55;96.92;96536.47;4994426;28;20229;-70
2022/04/27 03:42:03;;;;;;;16.63;7.43;;;;;;;9.20;98.25;96537.56;4993518;28;20238;-70
2022/04/27 03:44:30;;;;;;;17.80;6.87;;;;;;;9.13;97.68;96547.06;4992800;28;20218;-70
2022/04/27 03:46:56;;;;;;;16.17;7.27;;;;;;;9.36;96.86;96547.28;4993765;28;21274;-70
2022/04/27 03:49:22;;;;;;;17.97;7.53;;;;;;;9.21;97.69;96554.16;4993712;28;20876;-70
2022/04/27 03:51:49;;;;;;;19.00;7.90;;;;;;;9.35;98.06;96551.69;4993284;28;20745;-70
2022/04/27 03:54:17;;;;;;;18.10;8.00;;;;;;;9.58;98.61;96547.47;4993037;28;20206;-70
2022/04/27 03:56:43;;;;;;;17.60;7.70;;;;;;;9.30;98.52;96566.31;4993460;28;20202;-70
2022/04/27 03:59:10;;;;;;;14.57;7.20;;;;;;;9.32;98.27;96569.63;4993587;28;20234;-70
2022/04/27 04:01:36;;;;;;;13.97;6.97;;;;;;;9.40;97.05;96572.28;4993389;28;20226;-70
2022/04/27 04:04:02;;;;;;;17.03;7.07;;;;;;;9.19;97.82;96571.91;4995975;28;20203;-70
2022/04/27 04:06:29;;;;;;;15.87;6.97;;;;;;;9.29;98.15;96578.66;4996799;28;20210;-70
2022/04/27 04:08:55;;;;;;;17.57;8.33;;;;;;;9.43;97.93;96580.66;4996748;28;20292;-70
2022/04/27 04:11:23;;;;;;;16.93;7.17;;;;;;;9.73;97.93;96582.66;4996827;28;20206;-70
2022/04/27 04:13:49;;;;;;;16.00;7.03;;;;;;;9.59;96.76;96585.13;4995597;28;20203;-70
2022/04/27 04:16:16;;;;;;;15.43;7.23;;;;;;;9.46;96.77;96590.84;4996473;28;20209;-70
2022/04/27 04:18:42;;;;;;;15.80;7.03;;;;;;;9.51;96.84;96590.34;4996433;28;20234;-70
2022/04/27 04:21:10;;;;;;;14.17;6.73;;;;;;;9.43;97.82;96585.94;4996702;28;20202;-70
2022/04/27 04:23:36;;;;;;;16.67;7.50;;;;;;;9.49;97.95;96585.25;4995442;28;20230;-70
2022/04/27 04:28:48;;;;;;;16.57;7.03;;;;;;;9.80;97.12;96588.91;4996116;28;20754;-70
2022/04/27 04:31:17;;;;;;;16.97;7.87;;;;;;;9.58;97.40;96599.25;4996314;28;20223;-70
2022/04/27 04:33:44;;;;;;;14.77;7.20;;;;;;;9.53;97.67;96599.72;4995766;28;20206;-70
2022/04/27 04:36:10;;;;;;;16.13;7.20;;;;;;;9.41;98.69;96594.97;4996490;28;20234;-70
2022/04/27 04:38:37;;;;;;;14.73;6.93;;;;;;;9.48;98.53;96599.41;4995906;28;20219;-70
2022/04/27 04:41:03;;;;;;;17.93;7.73;;;;;;;9.67;98.01;96604.34;4996186;28;21225;-70
2022/04/27 04:43:31;;;;;;;16.13;7.53;;;;;;;9.80;98.09;96604.69;4995357;28;20237;-70
2022/04/27 04:45:59;;;;;;;19.33;8.00;;;;;;;9.86;98.55;96599.63;4995892;28;20230;-69
2022/04/27 04:48:25;;;;;;;21.47;8.93;;;;;;;9.88;97.45;96604.72;4996268;28;20211;-70
2022/04/27 04:50:51;;;;;;;21.63;9.60;;;;;;;9.86;97.69;96610.16;4996648;28;20214;-69
2022/04/27 04:53:19;;;;;;;20.40;8.73;;;;;;;9.90;98.52;96611.47;4994896;28;20207;-69
2022/04/27 04:55:45;;;;;;;21.50;8.50;;;;;;;9.71;99.11;96617.03;4995878;28;21364;-69
2022/04/27 04:58:12;;;;;;;21.57;8.40;;;;;;;9.84;98.47;96622.66;4996793;28;20589;-69
2022/04/27 05:00:39;;;;;;;21.30;8.73;;;;;;;9.84;98.75;96617.38;4995144;28;20569;-68
2022/04/27 05:03:07;;;;;;;19.93;8.97;;;;;;;10.29;97.61;96617.75;4995307;28;20230;-68
2022/04/27 05:05:34;;;;;;;22.40;10.47;;;;;;;10.03;98.13;96625.00;4996316;28;20210;-68
2022/04/27 05:08:01;;;;;;;19.40;9.77;;;;;;;10.07;98.81;96621.06;4995202;28;20203;-68
2022/04/27 05:10:27;;;;;;;21.20;9.90;;;;;;;10.24;98.43;96627.94;4995827;28;20234;-68
2022/04/27 05:12:54;;;;;;;21.77;10.23;;;;;;;10.14;98.99;96635.19;4995421;28;20274;-68
2022/04/27 05:15:21;;;;;;;26.03;10.33;;;;;;;10.20;99.49;96629.28;4994682;28;20207;-68
2022/04/27 05:17:47;;;;;;;32.33;12.13;;;;;;;10.14;99.32;96627.28;4995534;28;20222;-68
2022/04/27 05:20:15;;;;;;;25.63;10.30;;;;;;;10.26;100.00;96643.59;4995418;28;20227;-68
2022/04/27 05:22:41;;;;;;;27.53;11.03;;;;;;;10.15;99.36;96634.22;4994930;28;20981;-68
2022/04/27 05:25:10;;;;;;;26.77;11.50;;;;;;;10.44;99.04;96637.97;4995830;28;20226;-68
2022/04/27 05:27:37;;;;;;;28.03;11.10;;;;;;;10.44;98.08;96640.63;4995019;28;20206;-68
2022/04/27 05:32:48;;;;;;;26.60;11.87;;;;;;;10.61;97.09;96644.06;4994875;28;20678;-68
2022/04/27 05:35:16;;;;;;;33.30;13.07;;;;;;;10.39;99.27;96644.75;4995525;28;20579;-68
2022/04/27 05:37:43;;;;;;;32.27;12.67;;;;;;;10.30;98.72;96643.09;4995321;28;20214;-68
2022/04/27 05:40:11;;;;;;;31.07;12.93;;;;;;;10.78;97.18;96651.78;4995102;28;20226;-68
2022/04/27 05:42:38;;;;;;;29.17;12.03;;;;;;;10.48;98.34;96654.28;4994927;28;20229;-68
2022/04/27 05:45:05;;;;;;;28.77;12.07;;;;;;;10.71;97.71;96657.88;4995376;28;20214;-68
2022/04/27 05:47:32;;;;;;;30.77;12.67;;;;;;;10.35;97.29;96660.06;4995253;28;20202;-68
2022/04/27 05:49:58;;;;;;;26.60;11.70;;;;;;;10.22;96.47;96668.59;4994099;28;20234;-68
2022/04/27 05:52:27;;;;;;;28.00;11.97;;;;;;;10.12;98.46;96675.84;4994436;28;20207;-68
2022/04/27 05:54:53;;;;;;;31.37;12.03;;;;;;;10.34;95.66;96666.28;4995439;28;20214;-68
2022/04/27 05:57:20;;;;;;;28.33;12.10;;;;;;;10.46;94.59;96672.06;4995224;28;20211;-68
2022/04/27 05:59:47;;;;;;;27.83;12.13;;;;;;;10.54;94.70;96674.72;4994830;28;20317;-68
2022/04/27 06:02:14;;;;;;;27.13;11.90;;;;;;;10.67;94.37;96672.38;4994390;28;20226;-68
2022/04/27 06:04:40;;;;;;;27.63;11.40;;;;;;;10.40;97.40;96676.19;4994677;28;21017;-68
2022/04/27 06:07:08;;;;;;;28.67;12.03;;;;;;;10.44;97.54;96681.97;4994950;28;20203;-68
2022/04/27 06:09:36;;;;;;;29.40;12.47;;;;;;;10.69;96.85;96675.66;4994939;28;20317;-68
2022/04/27 06:12:02;;;;;;;21.07;10.23;;;;;;;10.55;96.04;96681.59;4995655;28;20199;-68
2022/04/27 06:14:28;;;;;;;25.77;10.43;;;;;;;10.45;96.26;96684.41;4994245;28;20210;-68
2022/04/27 06:16:55;;;;;;;24.63;10.50;;;;;;;10.83;94.63;96685.53;4994623;28;20217;-68
2022/04/27 06:19:21;;;;;;;23.63;10.10;;;;;;;10.94;93.99;96681.53;4994321;28;20629;-68
2022/04/27 06:21:48;;;;;;;19.17;9.00;;;;;;;10.63;94.86;96690.34;4994793;28;20214;-68
2022/04/27 06:24:14;;;;;;;22.57;9.37;;;;;;;10.70;93.96;96687.84;4994368;28;20222;-68
2022/04/27 06:26:42;;;;;;;21.60;9.00;;;;;;;11.10;92.85;96699.16;4993242;28;20219;-68
2022/04/27 06:29:09;;;;;;;20.03;8.83;;;;;;;10.95;91.35;96691.09;4994750;28;21202;-68
2022/04/27 06:31:36;;;;;;;18.67;8.70;;;;;;;10.91;91.25;96693.41;4994693;28;20207;-68
2022/04/27 06:34:02;;;;;;;20.77;9.27;;;;;;;10.65;92.16;96693.63;4993884;28;20198;-68
2022/04/27 06:36:28;;;;;;;20.37;8.50;;;;;;;10.75;93.71;96694.25;4994201;28;20769;-68
2022/04/27 06:38:55;;;;;;;21.87;8.90;;;;;;;11.10;91.62;96694.69;4994836;28;20225;-68
2022/04/27 06:41:21;;;;;;;21.10;9.47;;;;;;;10.88;91.44;96694.56;4994173;28;20218;-68
2022/04/27 06:43:49;;;;;;;23.50;9.10;;;;;;;11.31;91.86;96702.84;4993903;28;20589;-68
2022/04/27 06:46:15;;;;;;;20.00;8.90;;;;;;;11.41;89.21;96702.69;4994510;28;20211;-68
2022/04/27 06:48:42;;;;;;;17.43;8.60;;;;;;;11.39;91.11;96708.13;4994225;28;20230;-68
2022/04/27 06:51:08;;;;;;;20.00;8.77;;;;;;;11.56;89.56;96713.19;4994196;28;20215;-68
2022/04/27 06:53:35;;;;;;;17.43;7.90;;;;;;;11.35;88.74;96714.72;4993940;28;20206;-68
2022/04/27 06:56:01;;;;;;;16.90;7.40;;;;;;;10.94;89.63;96712.38;4994035;28;20207;-68
2022/04/27 06:58:28;;;;;;;16.13;7.40;;;;;;;10.93;90.89;96725.72;4993688;28;20219;-68
2022/04/27 07:00:56;;;;;;;17.30;7.83;;;;;;;11.47;92.01;96728.38;4993420;28;20210;-68
2022/04/27 07:03:22;;;;;;;17.97;7.77;;;;;;;11.67;89.59;96728.66;4993080;28;20229;-68
2022/04/27 07:05:49;;;;;;;15.60;7.63;;;;;;;10.78;89.72;96730.84;4993704;28;20238;-68
2022/04/27 07:08:15;;;;;;;19.63;7.80;;;;;;;11.20;89.50;96736.69;4992572;28;20487;-68
2022/04/27 07:10:42;;;;;;;12.23;6.23;;;;;;;10.69;90.25;96734.50;4993051;28;20498;-68
2022/04/27 07:13:08;;;;;;;15.23;6.93;;;;;;;10.82;92.19;96740.06;4992737;28;20225;-68
2022/04/27 07:15:35;;;;;;;15.63;6.60;;;;;;;10.74;91.26;96741.88;4993385;28;20939;-68
2022/04/27 07:18:02;;;;;;;14.00;5.90;;;;;;;11.29;90.77;96740.97;4993112;28;20686;-68
2022/04/27 07:20:29;;;;;;;15.70;6.13;;;;;;;10.80;89.74;96743.88;4993256;28;20234;-68
2022/04/27 07:22:55;;;;;;;13.87;5.80;;;;;;;10.66;91.43;96747.97;4993270;28;20226;-68
2022/04/27 07:25:22;;;;;;;14.40;5.93;;;;;;;10.89;92.62;96748.94;4993532;28;20827;-68
2022/04/27 07:27:48;;;;;;;12.40;6.03;;;;;;;11.04;90.47;96757.84;4993210;28;20730;-68
2022/04/27 07:30:15;;;;;;;16.73;6.20;;;;;;;11.13;90.52;96757.66;4992773;28;20521;-68
2022/04/27 07:32:42;;;;;;;14.93;6.10;;;;;;;11.12;91.04;96757.81;4993217;28;20202;-68
2022/04/27 07:35:10;;;;;;;19.57;7.20;;;;;;;11.47;90.47;96760.03;4993259;28;20214;-68
2022/04/27 07:37:37;;;;;;;13.43;6.00;;;;;;;11.41;91.58;96764.19;4994172;28;20215;-68
2022/04/27 07:40:05;;;;;;;15.97;7.07;;;;;;;11.47;87.56;96766.16;4996432;28;20324;-68
2022/04/27 07:42:31;;;;;;;14.23;6.87;;;;;;;11.86;85.73;96772.31;4995815;28;20203;-68
2022/04/27 07:44:58;;;;;;;12.67;6.07;;;;;;;12.19;83.87;96771.97;4996441;28;20210;-68
2022/04/27 07:47:24;;;;;;;12.67;5.70;;;;;;;12.33;84.47;96766.78;4996724;28;20448;-68
2022/04/27 07:49:50;;;;;;;12.20;6.00;;;;;;;12.61;83.23;96770.53;4996016;28;20530;-68
2022/04/27 07:52:18;;;;;;;13.33;4.97;;;;;;;12.89;84.36;96775.16;4995949;28;20213;-68
2022/04/27 07:54:45;;;;;;;11.85;5.00;;;;;;;12.33;83.40;96777.34;4996164;28;20214;-68
2022/04/27 07:57:11;;;;;;;13.07;6.03;;;;;;;12.59;81.89;96779.63;4995981;28;20301;-68
2022/04/27 07:59:38;;;;;;;12.70;5.97;;;;;;;12.44;84.69;96790.16;4996210;28;20233;-68
2022/04/27 08:02:04;;;;;;;14.07;5.80;;;;;;;12.24;84.28;96788.97;4996254;28;20203;-67
2022/04/27 08:04:31;;;;;;;12.67;6.07;;;;;;;12.83;83.43;96785.59;4995778;28;21121;-68
2022/04/27 08:06:57;;;;;;;13.43;5.43;;;;;;;12.62;84.45;96779.28;4995989;28;20206;-68
2022/04/27 08:09:25;;;;;;;15.37;5.90;;;;;;;13.03;83.88;96787.56;4996208;28;20230;-68
2022/04/27 08:11:51;;;;;;;11.37;5.80;;;;;;;12.83;84.02;96788.22;4995923;28;20206;-68
2022/04/27 08:14:18;;;;;;;10.57;5.20;;;;;;;13.07;83.43;96782.75;4995120;28;20210;-68
2022/04/27 08:16:44;;;;;;;13.33;5.60;;;;;;;12.73;81.94;96798.22;4995982;28;20206;-68
2022/04/27 08:19:11;;;;;;;14.17;6.00;;;;;;;13.00;80.32;96793.22;4995882;28;20257;-68
2022/04/27 08:21:36;;;;;;;11.33;5.30;;;;;;;12.99;79.88;96801.34;4995840;28;20217;-68
2022/04/27 08:24:06;;;;;;;10.63;5.13;;;;;;;13.08;80.85;96800.28;4995475;28;20683;-68
2022/04/27 08:26:34;;;;;;;8.43;4.13;;;;;;;13.44;76.86;96794.97;4996640;28;20671;-68
2022/04/27 08:29:01;;;;;;;8.27;3.67;;;;;;;13.21;75.40;96795.19;4996593;28;20321;-68
2022/04/27 08:31:27;;;;;;;7.13;3.55;;;;;;;13.28;71.99;96801.44;4996258;28;20214;-68
2022/04/27 08:33:54;;;;;;;7.82;3.38;;;;;;;13.71;73.37;96799.63;4995639;28;20208;-68
2022/04/27 08:36:20;;;;;;;6.90;4.05;;;;;;;13.89;73.43;96802.75;4996612;28;20202;-68
2022/04/27 08:38:47;;;;;;;10.48;4.85;;;;;;;14.25;72.05;96803.63;4996803;28;21096;-68
2022/04/27 08:41:14;;;;;;;11.38;5.18;;;;;;;14.32;72.05;96800.06;4996178;28;20206;-68
2022/04/27 08:43:42;;;;;;;10.05;5.32;;;;;;;14.25;75.86;96807.09;4995340;28;20261;-68
2022/04/27 08:46:09;;;;;;;11.52;5.57;;;;;;;13.47;74.72;96807.81;4996528;28;20221;-67
2022/04/27 08:48:36;;;;;;;9.20;4.57;;;;;;;13.38;75.99;96807.25;4994981;28;20734;-68
2022/04/27 08:51:03;;;;;;;7.20;4.00;;;;;;;13.72;72.18;96811.03;4995584;28;20203;-68
2022/04/27 08:53:29;;;;;;;10.90;4.53;;;;;;;14.20;72.71;96803.38;4995324;28;20290;-68
2022/04/27 08:55:56;;;;;;;8.88;4.50;;;;;;;14.08;71.15;96812.81;4996215;28;20195;-68
2022/04/27 08:58:24;;;;;;;9.73;4.90;;;;;;;13.70;74.09;96813.06;4995803;28;20298;-68
2022/04/27 09:00:52;;;;;;;9.53;4.80;;;;;;;13.90;72.93;96809.69;4996167;28;20253;-68
2022/04/27 09:03:24;;;;;;;7.95;4.00;;;;;;;14.08;73.88;96810.16;4995084;28;20582;-68
2022/04/27 09:05:51;;;;;;;7.75;3.85;;;;;;;13.57;75.39;96811.03;4995482;28;20198;-68
2022/04/27 09:08:18;;;;;;;8.97;4.17;;;;;;;13.24;76.11;96813.34;4995809;28;20213;-67
2022/04/27 09:10:45;;;;;;;7.13;4.03;;;;;;;13.60;74.11;96817.81;4996110;28;20210;-68
2022/04/27 09:13:11;;;;;;;7.27;3.87;;;;;;;13.41;74.91;96824.44;4995033;28;20214;-68
2022/04/27 09:15:38;;;;;;;8.85;4.38;;;;;;;13.17;78.00;96823.00;4995172;28;21089;-67
2022/04/27 09:21:00;;;;;;;10.30;5.30;;;;;;;13.27;76.61;96818.31;4995590;28;20303;-67
2022/04/27 09:23:29;;;;;;;10.77;4.57;;;;;;;12.80;79.99;96829.06;4994714;28;20234;-67
2022/04/27 09:25:57;;;;;;;9.13;4.43;;;;;;;13.25;80.28;96833.53;4995588;28;20698;-67
2022/04/27 09:28:26;;;;;;;7.07;3.85;;;;;;;13.30;78.01;96826.72;4995493;28;20210;-67
2022/04/27 09:30:53;;;;;;;9.70;4.75;;;;;;;13.24;76.99;96832.72;4995339;28;20195;-67
2022/04/27 09:33:35;;;;;;;9.65;4.90;;;;;;;13.16;79.65;96834.59;4994657;28;21094;-67
2022/04/27 09:36:03;;;;;;;10.07;4.60;;;;;;;13.11;81.28;96831.66;4995182;28;20207;-67
2022/04/27 09:38:39;;;;;;;9.70;4.33;;;;;;;13.02;78.86;96833.56;4994487;28;20231;-67
2022/04/27 09:41:06;;;;;;;10.07;4.50;;;;;;;12.44;80.96;96837.72;4995290;28;20289;-67
2022/04/27 09:43:44;;;;;;;10.80;4.43;;;;;;;12.72;81.51;96838.06;4994948;28;20230;-68
2022/04/27 09:46:16;;;;;;;8.50;4.03;;;;;;;12.78;83.21;96835.53;4994930;28;20226;-67
2022/04/27 09:48:46;;;;;;;7.87;3.63;;;;;;;13.01;82.71;96841.69;4995367;28;20242;-67
2022/04/27 09:51:14;;;;;;;9.10;4.23;;;;;;;12.67;83.21;96843.88;4994956;28;20207;-67
2022/04/27 09:53:42;;;;;;;9.07;4.50;;;;;;;12.70;83.63;96843.50;4994382;28;20202;-67
2022/04/27 09:56:12;;;;;;;6.30;3.33;;;;;;;12.61;81.75;96849.84;4995723;28;20211;-68
2022/04/27 09:58:43;;;;;;;8.30;4.37;;;;;;;12.86;81.64;96843.44;4995515;28;20313;-67
2022/04/27 10:01:14;;;;;;;9.20;4.40;;;;;;;13.39;80.63;96830.94;4994702;28;20861;-68
2022/04/27 10:03:42;;;;;;;9.50;3.80;;;;;;;13.26;80.70;96841.28;4994135;28;20234;-67
2022/04/27 10:06:10;;;;;;;6.80;3.47;;;;;;;13.51;78.25;96838.22;4995360;28;20583;-67
2022/04/27 10:08:39;;;;;;;7.47;3.88;;;;;;;13.45;78.29;96836.31;4994696;28;20227;-67
2022/04/27 10:11:06;;;;;;;8.33;4.13;;;;;;;13.02;83.89;96845.94;4994908;28;20202;-67
2022/04/27 10:13:33;;;;;;;6.80;3.47;;;;;;;13.25;83.29;96844.94;4994390;28;20572;-67
2022/04/27 10:16:00;;;;;;;9.07;3.40;;;;;;;12.68;78.79;96850.81;4994391;28;20713;-67
2022/04/27 10:18:27;;;;;;;6.13;3.63;;;;;;;13.58;76.69;96836.53;4994057;28;20590;-67
2022/04/27 10:20:53;;;;;;;8.40;3.83;;;;;;;13.71;78.70;96839.38;4994818;28;20207;-68
2022/04/27 10:23:24;;;;;;;7.22;3.58;;;;;;;13.73;80.21;96839.19;4993764;28;20214;-68
2022/04/27 10:26:13;;;;;;;8.10;4.30;;;;;;;14.33;77.80;96832.69;4994687;28;20206;-68
2022/04/27 10:28:43;;;;;;;6.93;3.72;;;;;;;14.69;73.80;96823.75;4994785;28;20603;-67
2022/04/27 10:31:11;;;;;;;5.75;3.28;;;;;;;14.48;72.21;96830.84;4994443;28;21144;-68
2022/04/27 10:33:43;;;;;;;6.57;3.63;;;;;;;14.73;72.16;96820.50;4993629;28;20206;-68
2022/04/27 10:36:38;;;;;;;5.10;3.22;;;;;;;15.07;70.81;96825.97;4994597;28;20206;-68
2022/04/27 10:39:23;;;;;;;6.38;3.30;;;;;;;14.66;70.88;96832.91;4994579;28;20254;-68
2022/04/27 10:41:55;;;;;;;5.78;3.28;;;;;;;14.54;70.94;96835.41;4994411;28;20206;-68
2022/04/27 10:44:22;;;;;;;7.82;3.55;;;;;;;14.63;72.41;96835.91;4993939;28;20344;-68
2022/04/27 10:46:49;;;;;;;5.63;2.90;;;;;;;15.26;67.71;96833.28;4994459;28;20290;-68
2022/04/27 10:49:23;;;;;;;5.80;2.90;;;;;;;15.40;68.57;96841.22;4994115;28;20242;-68
2022/04/27 10:52:11;;;;;;;5.93;3.58;;;;;;;14.73;70.45;96847.03;4994300;28;21046;-68
2022/04/27 10:54:40;;;;;;;5.90;3.22;;;;;;;14.71;70.94;96851.72;4991060;28;20241;-68
2022/04/27 10:57:41;;;;;;;6.35;3.53;;;;;;;15.70;67.10;96847.16;4994678;28;20210;-68
2022/04/27 11:00:09;;;;;;;5.68;3.30;;;;;;;16.38;70.34;96843.53;4986601;28;20245;-68
2022/04/27 11:02:37;;;;;;;5.35;3.08;;;;;;;16.48;63.23;96849.25;4993765;28;20206;-68
2022/04/27 11:05:06;;;;;;;5.55;2.97;;;;;;;16.74;63.49;96852.84;4993620;28;20218;-68
2022/04/27 11:07:39;;;;;;;6.68;3.63;;;;;;;16.34;63.62;96850.22;4994760;28;20217;-68
2022/04/27 11:10:15;;;;;;;4.95;3.00;;;;;;;15.58;62.97;96848.69;4993695;28;20233;-67
2022/04/27 11:12:48;;;;;;;3.58;2.28;;;;;;;16.02;61.82;96848.19;4994283;28;20206;-68
2022/04/27 11:15:21;;;;;;;5.25;2.83;;;;;;;15.88;66.30;96851.78;4995818;28;20593;-68
2022/04/27 11:17:55;;;;;;;5.60;3.13;;;;;;;16.27;64.74;96844.06;4997508;28;20214;-68
2022/04/27 11:20:29;;;;;;;5.65;3.20;;;;;;;16.75;61.95;96851.84;4997072;28;20222;-68
2022/04/27 11:22:58;;;;;;;5.07;3.00;;;;;;;16.89;61.54;96842.03;4996396;28;20206;-68
2022/04/27 11:25:28;;;;;;;4.25;2.53;;;;;;;15.50;63.13;96846.19;4997517;28;20233;-68
2022/04/27 11:27:55;;;;;;;4.85;2.95;;;;;;;15.14;63.76;96842.78;4996616;28;20214;-68
2022/04/27 11:30:23;;;;;;;5.45;3.05;;;;;;;15.13;66.83;96842.97;4997575;28;20218;-68
2022/04/27 11:32:50;;;;;;;5.47;2.97;;;;;;;15.85;65.65;96835.41;4996370;28;20728;-68
2022/04/27 11:35:18;;;;;;;3.42;2.15;;;;;;;15.63;60.54;96847.13;4997111;28;20226;-68
2022/04/27 11:37:45;;;;;;;4.30;2.60;;;;;;;15.54;64.11;96847.44;4996775;28;20213;-68
2022/04/27 11:40:13;;;;;;;3.92;2.13;;;;;;;16.10;58.12;96844.53;4996467;28;20222;-68
2022/04/27 11:42:46;;;;;;;4.22;2.45;;;;;;;15.64;63.75;96845.25;4996218;28;20297;-68
2022/04/27 11:45:14;;;;;;;3.75;2.45;;;;;;;15.24;64.97;96853.94;4996648;28;20264;-68
2022/04/27 11:47:40;;;;;;;5.35;3.15;;;;;;;15.24;67.17;96850.47;4995426;28;20210;-68
2022/04/27 11:50:08;;;;;;;4.20;2.55;;;;;;;15.64;64.43;96854.03;4995873;28;20987;-68
2022/04/27 11:52:36;;;;;;;5.75;3.13;;;;;;;15.39;66.71;96852.03;4996219;28;20210;-68